Time;durP1;ratioP1;P1;durP2;ratioP2;P2;SDS_P1;SDS_P2;PMS_P1;PMS_P2;Temp;Humidity;BMP_temperature;BMP_pressure;BME280_temperature;BME280_humidity;BME280_pressure;Samples;Min_cycle;Max_cycle;Signal;HPM_P1;HPM_P2
2023/09/18 05:27:56;;;;;;;16.08;5.93;;;;;;;;;;7353588;19;20345;-78
2023/09/18 05:30:33;;;;;;;14.45;5.97;;;;;;;;;;7353180;19;20010;-85
2023/09/18 05:33:05;;;;;;;15.02;5.43;;;;;;;;;;7356162;19;20456;-77
2023/09/18 05:35:36;;;;;;;11.40;5.30;;;;;;;;;;7361507;19;20463;-79
2023/09/18 05:38:01;;;;;;;13.35;5.32;;;;;;;;;;7358389;19;20015;-78
2023/09/18 05:40:26;;;;;;;12.77;5.43;;;;;;;;;;7357881;19;20003;-79
2023/09/18 05:42:53;;;;;;;11.13;5.27;;;;;;;;;;7340613;19;20003;-78
2023/09/18 05:45:18;;;;;;;11.80;5.00;;;;;;;;;;7352622;19;20021;-82
2023/09/18 05:47:43;;;;;;;15.07;5.53;;;;;;;;;;7086460;19;89484;-77
2023/09/18 05:50:09;;;;;;;12.90;5.17;;;;;;;;;;7280367;19;78584;-81
2023/09/18 05:52:35;;;;;;;15.60;5.13;;;;;;;;;;7320758;19;20251;-80
2023/09/18 05:55:01;;;;;;;13.75;5.93;;;;;;;;;;7360210;19;19997;-80
2023/09/18 05:57:30;;;;;;;13.05;5.32;;;;;;;;;;7350272;19;20766;-83
2023/09/18 05:59:55;;;;;;;13.90;5.80;;;;;;;;;;7350707;19;20024;-81
2023/09/18 06:02:20;;;;;;;12.70;5.45;;;;;;;;;;7344482;19;20662;-83
2023/09/18 06:04:46;;;;;;;11.97;6.10;;;;;;;;;;7354251;19;20444;-81
2023/09/18 06:07:12;;;;;;;14.60;5.63;;;;;;;;;;7351966;19;20247;-80
2023/09/18 06:09:38;;;;;;;14.50;5.80;;;;;;;;;;7356698;19;20002;-83
2023/09/18 06:12:04;;;;;;;14.43;5.67;;;;;;;;;;7356018;19;20091;-83
2023/09/18 06:14:30;;;;;;;12.48;5.50;;;;;;;;;;7357373;19;20122;-79
2023/09/18 06:16:55;;;;;;;11.48;5.85;;;;;;;;;;7351598;19;20435;-81
2023/09/18 06:19:21;;;;;;;14.43;6.23;;;;;;;;;;7350519;19;20004;-79
2023/09/18 06:21:46;;;;;;;8.48;4.82;;;;;;;;;;7330128;19;20246;-82
2023/09/18 06:24:12;;;;;;;11.97;5.40;;;;;;;;;;7354610;19;20316;-81
2023/09/18 06:26:37;;;;;;;11.63;5.50;;;;;;;;;;7346015;19;20008;-80
2023/09/18 06:29:03;;;;;;;14.50;5.47;;;;;;;;;;7347781;19;20011;-79
2023/09/18 06:31:28;;;;;;;11.25;5.20;;;;;;;;;;7349445;19;20490;-80
2023/09/18 06:33:53;;;;;;;12.38;4.90;;;;;;;;;;7352981;19;20008;-83
2023/09/18 06:36:19;;;;;;;12.30;4.80;;;;;;;;;;7354466;19;20113;-82
2023/09/18 06:38:44;;;;;;;8.85;4.32;;;;;;;;;;7354786;19;20287;-82
2023/09/18 06:41:09;;;;;;;9.82;4.70;;;;;;;;;;7332998;19;19999;-80
2023/09/18 06:43:34;;;;;;;14.88;4.65;;;;;;;;;;7350839;19;20352;-81
2023/09/18 06:46:00;;;;;;;14.90;4.88;;;;;;;;;;7357247;19;20018;-79
2023/09/18 06:48:25;;;;;;;11.85;4.97;;;;;;;;;;7362109;19;19995;-79
2023/09/18 06:50:50;;;;;;;10.90;4.60;;;;;;;;;;7361255;19;19999;-81
2023/09/18 06:53:15;;;;;;;12.35;4.07;;;;;;;;;;7357545;19;20534;-79
2023/09/18 06:55:41;;;;;;;10.93;4.30;;;;;;;;;;7357793;19;20070;-82
2023/09/18 06:58:06;;;;;;;8.70;4.15;;;;;;;;;;7357116;19;20010;-82
2023/09/18 07:00:31;;;;;;;7.53;4.33;;;;;;;;;;7371229;19;19990;-81
2023/09/18 07:02:57;;;;;;;12.45;4.30;;;;;;;;;;7361946;19;20878;-83
2023/09/18 07:05:22;;;;;;;9.25;4.30;;;;;;;;;;7363555;19;20010;-81
2023/09/18 07:07:47;;;;;;;9.83;4.07;;;;;;;;;;7350976;19;20775;-80
2023/09/18 07:10:12;;;;;;;7.97;3.58;;;;;;;;;;7367179;19;20227;-81
2023/09/18 07:12:37;;;;;;;8.15;3.75;;;;;;;;;;7365504;19;20028;-80
2023/09/18 07:15:06;;;;;;;10.20;3.80;;;;;;;;;;7366070;19;20043;-79
2023/09/18 07:17:31;;;;;;;10.77;3.78;;;;;;;;;;7368479;19;20027;-81
2023/09/18 07:19:56;;;;;;;9.85;3.83;;;;;;;;;;7367366;19;20002;-82
2023/09/18 07:22:21;;;;;;;10.93;4.10;;;;;;;;;;7363629;19;20146;-80
2023/09/18 07:24:47;;;;;;;12.20;4.07;;;;;;;;;;7362035;19;20232;-80
2023/09/18 07:27:12;;;;;;;10.60;4.20;;;;;;;;;;7365461;19;20007;-80
2023/09/18 07:29:38;;;;;;;11.05;3.88;;;;;;;;;;7367928;19;20558;-81
2023/09/18 07:32:03;;;;;;;11.07;4.03;;;;;;;;;;7367088;19;20006;-83
2023/09/18 07:34:28;;;;;;;8.75;3.95;;;;;;;;;;7369396;19;20009;-81
2023/09/18 07:36:55;;;;;;;11.13;4.13;;;;;;;;;;7361074;19;20078;-80
2023/09/18 07:39:20;;;;;;;9.23;3.72;;;;;;;;;;7360854;19;20282;-83
2023/09/18 07:41:47;;;;;;;8.67;3.73;;;;;;;;;;7365750;19;20006;-82
2023/09/18 07:44:12;;;;;;;14.23;4.07;;;;;;;;;;7356165;19;20351;-81
2023/09/18 07:46:38;;;;;;;10.90;4.03;;;;;;;;;;7368259;19;20063;-79
2023/09/18 07:49:03;;;;;;;10.85;4.22;;;;;;;;;;7362310;19;20246;-80
2023/09/18 07:51:29;;;;;;;10.83;3.80;;;;;;;;;;7364445;19;20019;-80
2023/09/18 07:53:55;;;;;;;10.00;3.80;;;;;;;;;;7360747;19;20239;-83
2023/09/18 07:56:20;;;;;;;10.07;3.90;;;;;;;;;;7369649;19;20444;-82
2023/09/18 07:58:46;;;;;;;6.20;3.50;;;;;;;;;;7364101;19;20019;-82
2023/09/18 08:01:12;;;;;;;8.80;3.42;;;;;;;;;;7360604;19;21076;-79
2023/09/18 08:03:37;;;;;;;9.55;3.20;;;;;;;;;;7360559;19;19991;-81
2023/09/18 08:06:04;;;;;;;10.13;3.58;;;;;;;;;;7361056;19;20063;-81
2023/09/18 08:08:30;;;;;;;9.18;3.53;;;;;;;;;;7363163;19;20000;-80
2023/09/18 08:10:55;;;;;;;11.55;3.83;;;;;;;;;;7365268;19;20497;-83
2023/09/18 08:13:21;;;;;;;10.00;3.37;;;;;;;;;;7363242;19;20084;-81
2023/09/18 08:15:46;;;;;;;8.93;3.10;;;;;;;;;;7365249;19;20246;-82
2023/09/18 08:18:13;;;;;;;8.63;3.53;;;;;;;;;;7365824;19;19995;-80
2023/09/18 08:20:42;;;;;;;7.20;3.17;;;;;;;;;;7362899;19;20070;-81
2023/09/18 08:23:07;;;;;;;15.18;3.08;;;;;;;;;;7362974;19;20607;-80
2023/09/18 08:25:33;;;;;;;7.55;3.05;;;;;;;;;;7368841;19;20014;-83
2023/09/18 08:27:58;;;;;;;8.07;2.90;;;;;;;;;;7361289;19;20002;-82
2023/09/18 08:30:23;;;;;;;8.60;3.07;;;;;;;;;;7369435;19;20027;-81
2023/09/18 08:32:48;;;;;;;7.38;2.90;;;;;;;;;;7362945;19;20407;-82
2023/09/18 08:35:13;;;;;;;8.97;3.17;;;;;;;;;;7367437;19;20002;-80
2023/09/18 08:37:42;;;;;;;7.83;2.90;;;;;;;;;;7357865;19;20066;-82
2023/09/18 08:40:09;;;;;;;9.80;3.15;;;;;;;;;;7364850;19;20353;-80
2023/09/18 08:42:36;;;;;;;9.45;3.17;;;;;;;;;;7359231;19;20697;-81
2023/09/18 08:45:01;;;;;;;5.55;2.95;;;;;;;;;;7357677;19;20003;-82
2023/09/18 08:47:27;;;;;;;8.85;3.38;;;;;;;;;;7365631;19;20062;-80
2023/09/18 08:49:53;;;;;;;9.68;3.42;;;;;;;;;;7362823;19;19990;-80
2023/09/18 08:52:19;;;;;;;5.90;3.00;;;;;;;;;;7361248;19;20082;-81
2023/09/18 08:54:45;;;;;;;7.63;2.80;;;;;;;;;;7364898;19;20073;-80
2023/09/18 08:57:11;;;;;;;7.20;2.67;;;;;;;;;;7359384;19;20766;-81
2023/09/18 08:59:37;;;;;;;7.45;2.67;;;;;;;;;;7365062;19;20013;-81
2023/09/18 09:02:02;;;;;;;8.18;2.97;;;;;;;;;;7358978;19;20461;-81
2023/09/18 09:04:27;;;;;;;8.97;2.73;;;;;;;;;;7367274;19;20002;-83
2023/09/18 09:06:53;;;;;;;5.88;2.53;;;;;;;;;;7362368;19;20255;-84
2023/09/18 09:09:19;;;;;;;9.77;2.20;;;;;;;;;;7360399;19;20019;-80
2023/09/18 09:11:50;;;;;;;9.68;2.45;;;;;;;;;;7363470;19;20253;-84
2023/09/18 09:14:18;;;;;;;7.38;2.40;;;;;;;;;;7352477;19;20431;-81
2023/09/18 09:16:48;;;;;;;8.27;2.33;;;;;;;;;;7366488;19;20044;-83
2023/09/18 09:19:14;;;;;;;6.10;2.20;;;;;;;;;;7359268;19;20542;-79
2023/09/18 09:21:40;;;;;;;7.53;2.58;;;;;;;;;;7361309;19;20032;-81
2023/09/18 09:24:05;;;;;;;7.70;2.53;;;;;;;;;;7359804;19;20590;-83
2023/09/18 09:26:30;;;;;;;7.88;2.75;;;;;;;;;;7369342;19;20006;-81
2023/09/18 09:28:55;;;;;;;6.13;1.97;;;;;;;;;;7348151;19;20014;-84
2023/09/18 09:31:24;;;;;;;6.03;2.30;;;;;;;;;;7332794;19;20341;-77
2023/09/18 09:33:53;;;;;;;7.78;2.10;;;;;;;;;;7364259;19;20006;-81
2023/09/18 09:36:18;;;;;;;5.75;2.28;;;;;;;;;;7366059;19;21016;-80
2023/09/18 09:38:44;;;;;;;8.00;2.50;;;;;;;;;;7360476;19;20003;-82
2023/09/18 09:41:13;;;;;;;4.90;2.22;;;;;;;;;;7360778;19;20406;-82
2023/09/18 09:43:41;;;;;;;8.48;2.10;;;;;;;;;;7356208;19;20542;-81
2023/09/18 09:46:06;;;;;;;5.45;2.10;;;;;;;;;;7355927;19;20058;-82
2023/09/18 09:48:32;;;;;;;6.30;2.27;;;;;;;;;;7366119;19;20306;-81
2023/09/18 09:51:01;;;;;;;5.13;2.10;;;;;;;;;;7359171;19;20407;-82
2023/09/18 09:53:47;;;;;;;5.55;2.20;;;;;;;;;;7348150;19;20023;-83
2023/09/18 09:56:13;;;;;;;6.45;1.90;;;;;;;;;;7327414;19;20009;-82
2023/09/18 09:58:41;;;;;;;7.53;2.67;;;;;;;;;;7356574;19;20341;-84
2023/09/18 10:01:10;;;;;;;6.20;2.05;;;;;;;;;;7317212;19;20011;-82
2023/09/18 10:03:36;;;;;;;8.25;2.40;;;;;;;;;;7357016;19;19999;-80
2023/09/18 10:06:03;;;;;;;7.45;2.28;;;;;;;;;;7362833;19;20117;-80
2023/09/18 10:08:30;;;;;;;6.07;2.20;;;;;;;;;;7359727;19;20007;-81
2023/09/18 10:10:58;;;;;;;9.75;2.58;;;;;;;;;;7358322;19;20416;-83
2023/09/18 10:13:28;;;;;;;5.70;2.20;;;;;;;;;;7353720;19;20443;-82
2023/09/18 10:15:55;;;;;;;10.93;2.95;;;;;;;;;;7361354;19;20070;-80
2023/09/18 10:18:30;;;;;;;6.82;2.58;;;;;;;;;;7364488;19;20010;-83
2023/09/18 10:21:00;;;;;;;6.13;2.53;;;;;;;;;;7364044;19;20014;-84
2023/09/18 10:23:52;;;;;;;5.43;2.15;;;;;;;;;;7360626;19;20010;-81
2023/09/18 10:26:24;;;;;;;7.20;2.33;;;;;;;;;;7356690;19;20356;-81
2023/09/18 10:28:52;;;;;;;8.73;2.10;;;;;;;;;;7356969;19;19999;-82
2023/09/18 10:31:18;;;;;;;7.60;1.98;;;;;;;;;;7329801;19;20595;-83
2023/09/18 10:33:44;;;;;;;5.78;2.30;;;;;;;;;;7360800;19;20645;-85
2023/09/18 10:36:10;;;;;;;6.80;2.25;;;;;;;;;;7359666;19;19998;-84
2023/09/18 10:38:38;;;;;;;8.30;2.50;;;;;;;;;;7358394;19;20018;-82
2023/09/18 10:41:04;;;;;;;11.88;2.97;;;;;;;;;;7358508;19;20450;-84
2023/09/18 10:43:30;;;;;;;6.05;2.25;;;;;;;;;;7353888;19;20453;-81
2023/09/18 10:45:55;;;;;;;6.93;1.98;;;;;;;;;;7348570;19;21020;-83
2023/09/18 10:48:22;;;;;;;5.18;2.13;;;;;;;;;;7357512;19;20403;-83
2023/09/18 10:50:47;;;;;;;5.05;2.30;;;;;;;;;;7363398;19;20013;-82
2023/09/18 10:53:13;;;;;;;8.77;2.25;;;;;;;;;;7355501;19;20002;-81
2023/09/18 10:55:38;;;;;;;6.03;2.17;;;;;;;;;;7360213;19;19995;-84
2023/09/18 10:58:04;;;;;;;5.82;2.20;;;;;;;;;;7348656;19;20511;-83
2023/09/18 11:00:30;;;;;;;6.13;2.55;;;;;;;;;;7339690;19;20518;-83
2023/09/18 11:03:10;;;;;;;5.05;2.00;;;;;;;;;;7356754;19;20003;-83
2023/09/18 11:05:35;;;;;;;6.50;2.17;;;;;;;;;;7360327;19;20011;-82
2023/09/18 11:08:19;;;;;;;5.53;2.20;;;;;;;;;;7359099;19;20337;-84
2023/09/18 11:10:45;;;;;;;;;;;;;;;;;;7352096;19;20005;-83
2023/09/18 11:13:11;;;;;;;9.25;2.72;;;;;;;;;;7345743;19;20316;-84
2023/09/18 11:15:36;;;;;;;5.22;2.35;;;;;;;;;;7355482;19;20468;-85
2023/09/18 11:18:02;;;;;;;6.68;2.63;;;;;;;;;;7353435;19;20037;-85
2023/09/18 11:20:28;;;;;;;9.35;2.40;;;;;;;;;;7360102;19;20028;-80
2023/09/18 11:23:15;;;;;;;7.53;2.37;;;;;;;;;;7358925;19;19999;-83
2023/09/18 11:25:41;;;;;;;7.63;2.35;;;;;;;;;;7328691;19;20598;-82
2023/09/18 11:28:07;;;;;;;5.60;2.20;;;;;;;;;;7344572;19;20015;-84
2023/09/18 11:30:33;;;;;;;6.78;2.30;;;;;;;;;;7353611;19;20353;-83
2023/09/18 11:33:01;;;;;;;6.68;2.22;;;;;;;;;;7344207;19;20651;-82
2023/09/18 11:35:26;;;;;;;5.50;2.30;;;;;;;;;;7337920;19;20058;-86
2023/09/18 11:38:10;;;;;;;6.32;2.40;;;;;;;;;;7298646;19;20325;-85
2023/09/18 11:40:38;;;;;;;;;;;;;;;;;;7359470;19;20738;-84
2023/09/18 11:43:25;;;;;;;7.00;2.42;;;;;;;;;;7350560;19;19914;-83
2023/09/18 11:45:51;;;;;;;7.38;2.47;;;;;;;;;;7362279;19;20070;-83
2023/09/18 11:48:18;;;;;;;7.13;2.17;;;;;;;;;;7344820;19;20739;-82
2023/09/18 11:50:44;;;;;;;5.28;2.13;;;;;;;;;;7366321;19;20002;-82
2023/09/18 11:53:12;;;;;;;6.57;2.22;;;;;;;;;;7351092;19;20009;-83
2023/09/18 11:55:37;;;;;;;6.78;2.17;;;;;;;;;;7360341;19;20312;-82
2023/09/18 11:58:04;;;;;;;7.30;2.20;;;;;;;;;;7361884;19;20419;-81
2023/09/18 12:00:29;;;;;;;5.90;2.08;;;;;;;;;;7358380;19;20002;-82
2023/09/18 12:02:55;;;;;;;5.55;2.30;;;;;;;;;;7360613;19;19999;-84
2023/09/18 12:05:20;;;;;;;7.05;2.50;;;;;;;;;;7337577;19;20352;-83
2023/09/18 12:07:46;;;;;;;6.10;1.98;;;;;;;;;;7339078;19;20527;-82
2023/09/18 12:10:12;;;;;;;5.32;2.30;;;;;;;;;;7346953;19;20028;-83
2023/09/18 12:12:37;;;;;;;4.68;1.70;;;;;;;;;;7363857;19;20031;-84
2023/09/18 12:15:03;;;;;;;4.43;2.00;;;;;;;;;;7365171;19;20015;-82
2023/09/18 12:17:28;;;;;;;5.20;1.77;;;;;;;;;;7348320;19;20436;-82
2023/09/18 12:19:54;;;;;;;5.90;2.30;;;;;;;;;;7367067;19;19998;-85
2023/09/18 12:22:23;;;;;;;7.72;1.98;;;;;;;;;;7362461;19;20115;-84
2023/09/18 12:24:48;;;;;;;7.47;1.80;;;;;;;;;;7364403;19;20392;-81
2023/09/18 12:27:13;;;;;;;5.67;1.73;;;;;;;;;;7358716;19;20012;-81
2023/09/18 12:29:38;;;;;;;6.43;1.83;;;;;;;;;;7363874;19;19998;-79
2023/09/18 12:32:06;;;;;;;5.83;1.87;;;;;;;;;;7354831;19;20362;-83
2023/09/18 12:34:31;;;;;;;5.05;1.80;;;;;;;;;;7355541;19;20078;-85
2023/09/18 12:36:56;;;;;;;5.22;1.80;;;;;;;;;;7364286;19;20058;-80
2023/09/18 12:39:21;;;;;;;3.40;1.45;;;;;;;;;;7349126;19;20006;-82
2023/09/18 12:41:47;;;;;;;6.55;1.88;;;;;;;;;;7346705;19;20325;-81
2023/09/18 12:44:14;;;;;;;4.80;1.95;;;;;;;;;;7355802;19;20039;-85
2023/09/18 12:46:43;;;;;;;4.60;1.75;;;;;;;;;;7361119;19;20090;-83
2023/09/18 12:49:34;;;;;;;3.97;1.40;;;;;;;;;;7358368;19;20042;-82
2023/09/18 12:52:00;;;;;;;5.88;1.85;;;;;;;;;;7361620;19;20479;-81
2023/09/18 12:54:45;;;;;;;5.35;1.90;;;;;;;;;;7353553;19;20018;-81
2023/09/18 12:57:10;;;;;;;4.97;2.05;;;;;;;;;;7352201;19;20031;-81
2023/09/18 12:59:37;;;;;;;6.07;1.85;;;;;;;;;;7359114;19;20058;-83
2023/09/18 13:02:06;;;;;;;5.97;1.95;;;;;;;;;;7362351;19;20002;-83
2023/09/18 13:04:36;;;;;;;6.35;2.00;;;;;;;;;;7360686;19;19994;-83
2023/09/18 13:07:14;;;;;;;6.20;1.83;;;;;;;;;;7358853;19;19999;-81
2023/09/18 13:09:40;;;;;;;4.32;1.67;;;;;;;;;;7355482;19;20006;-84
2023/09/18 13:12:06;;;;;;;5.60;1.80;;;;;;;;;;7348141;19;20323;-81
2023/09/18 13:17:38;;;;;;;7.50;2.10;;;;;;;;;;7327586;19;20421;-79
2023/09/18 13:20:30;;;;;;;5.78;2.00;;;;;;;;;;7358728;19;20574;-85
2023/09/18 13:22:56;;;;;;;5.05;1.88;;;;;;;;;;7357036;19;20070;-82
2023/09/18 13:25:22;;;;;;;6.75;1.92;;;;;;;;;;7356282;19;20013;-81
2023/09/18 13:27:47;;;;;;;5.32;2.00;;;;;;;;;;7360454;19;20085;-83
2023/09/18 13:30:16;;;;;;;9.02;2.17;;;;;;;;;;7343618;19;20008;-83
2023/09/18 13:32:42;;;;;;;5.00;1.92;;;;;;;;;;7333731;19;20443;-81
2023/09/18 13:35:07;;;;;;;5.63;2.00;;;;;;;;;;7352258;19;20007;-82
2023/09/18 13:37:33;;;;;;;5.35;1.90;;;;;;;;;;7353210;19;20066;-82
2023/09/18 13:40:01;;;;;;;6.30;2.17;;;;;;;;;;7358317;19;20022;-81
2023/09/18 13:42:26;;;;;;;5.35;1.83;;;;;;;;;;7351423;19;20353;-83
2023/09/18 13:44:52;;;;;;;5.25;2.10;;;;;;;;;;7345091;19;20066;-81
2023/09/18 13:47:17;;;;;;;5.32;1.95;;;;;;;;;;7339114;19;20002;-82
2023/09/18 13:49:42;;;;;;;4.63;1.80;;;;;;;;;;7353576;19;20003;-84
2023/09/18 13:52:07;;;;;;;5.20;1.80;;;;;;;;;;7361107;19;20003;-84
2023/09/18 13:54:32;;;;;;;6.00;2.10;;;;;;;;;;7338643;19;20482;-84
2023/09/18 13:56:58;;;;;;;7.50;2.00;;;;;;;;;;7350366;19;20255;-81
2023/09/18 13:59:23;;;;;;;8.80;2.30;;;;;;;;;;7362046;19;19999;-82
2023/09/18 14:01:48;;;;;;;6.03;2.07;;;;;;;;;;7351650;19;20027;-80
2023/09/18 14:04:13;;;;;;;6.00;2.13;;;;;;;;;;7365626;19;20010;-81
2023/09/18 14:06:38;;;;;;;5.10;1.73;;;;;;;;;;7352719;19;20020;-83
2023/09/18 14:09:05;;;;;;;5.60;2.00;;;;;;;;;;7366024;19;20003;-82
2023/09/18 14:11:31;;;;;;;5.00;1.83;;;;;;;;;;7348385;19;20027;-82
2023/09/18 14:13:56;;;;;;;5.47;1.77;;;;;;;;;;7355851;19;20007;-84
2023/09/18 14:16:21;;;;;;;8.17;1.97;;;;;;;;;;7319312;19;21116;-85
2023/09/18 14:18:46;;;;;;;5.50;1.85;;;;;;;;;;7231372;19;20640;-85
2023/09/18 14:21:11;;;;;;;6.33;2.20;;;;;;;;;;7262235;19;20283;-84
2023/09/18 14:23:37;;;;;;;6.50;2.25;;;;;;;;;;7239908;19;20603;-84
2023/09/18 14:26:02;;;;;;;8.57;2.10;;;;;;;;;;7223011;19;20019;-83
2023/09/18 14:28:27;;;;;;;6.67;2.20;;;;;;;;;;7253447;19;20708;-82
2023/09/18 14:30:54;;;;;;;8.85;2.25;;;;;;;;;;7266795;19;20265;-82
2023/09/18 14:33:19;;;;;;;6.03;2.15;;;;;;;;;;7254652;19;20895;-83
2023/09/18 14:35:44;;;;;;;5.53;1.80;;;;;;;;;;7265555;19;20002;-83
2023/09/18 14:38:09;;;;;;;9.07;2.00;;;;;;;;;;7261923;19;20302;-83
2023/09/18 14:40:34;;;;;;;4.50;2.00;;;;;;;;;;7251923;19;20090;-85
2023/09/18 14:43:00;;;;;;;6.43;2.10;;;;;;;;;;7256974;19;20803;-85
2023/09/18 14:45:25;;;;;;;6.00;2.00;;;;;;;;;;7252578;19;20002;-84
2023/09/18 14:47:50;;;;;;;5.33;2.00;;;;;;;;;;7259230;19;19999;-82
2023/09/18 14:50:16;;;;;;;4.87;1.80;;;;;;;;;;7265774;19;20482;-84
2023/09/18 14:52:41;;;;;;;7.18;2.28;;;;;;;;;;7246964;19;20865;-82
2023/09/18 14:55:06;;;;;;;4.85;1.70;;;;;;;;;;7256343;19;20253;-83
2023/09/18 14:57:31;;;;;;;6.32;2.25;;;;;;;;;;7249504;19;19999;-83
2023/09/18 14:59:57;;;;;;;6.90;2.10;;;;;;;;;;7253331;19;20357;-84
2023/09/18 15:02:23;;;;;;;6.72;2.00;;;;;;;;;;7246555;19;20380;-84
2023/09/18 15:04:49;;;;;;;6.53;2.08;;;;;;;;;;7250436;19;20606;-83
2023/09/18 15:07:14;;;;;;;8.02;2.60;;;;;;;;;;7261129;19;20469;-83
2023/09/18 15:09:39;;;;;;;7.27;2.50;;;;;;;;;;7257360;19;20009;-81
2023/09/18 15:12:07;;;;;;;10.23;2.42;;;;;;;;;;7250738;19;20003;-86
2023/09/18 15:14:33;;;;;;;6.22;1.95;;;;;;;;;;7251092;19;20435;-84
2023/09/18 15:16:58;;;;;;;5.55;2.20;;;;;;;;;;7289877;19;20338;-81
2023/09/18 15:19:23;;;;;;;6.30;2.15;;;;;;;;;;7348065;19;20291;-83
2023/09/18 15:21:49;;;;;;;5.37;2.10;;;;;;;;;;7351708;19;20018;-82
2023/09/18 15:24:14;;;;;;;9.88;2.55;;;;;;;;;;7359628;19;20045;-82
2023/09/18 15:26:40;;;;;;;6.00;2.15;;;;;;;;;;7350925;19;20337;-83
2023/09/18 15:29:05;;;;;;;7.23;2.30;;;;;;;;;;7359430;19;20617;-84
2023/09/18 15:31:30;;;;;;;5.63;2.30;;;;;;;;;;7343578;19;20239;-83
2023/09/18 15:33:55;;;;;;;4.95;2.17;;;;;;;;;;7350254;19;21154;-81
2023/09/18 15:36:23;;;;;;;5.72;2.47;;;;;;;;;;7356905;19;20003;-81
2023/09/18 15:38:50;;;;;;;8.70;2.60;;;;;;;;;;7349447;19;20724;-83
2023/09/18 15:41:15;;;;;;;6.28;2.13;;;;;;;;;;7349717;19;20034;-83
2023/09/18 15:43:40;;;;;;;5.60;2.13;;;;;;;;;;7346575;19;20701;-84
2023/09/18 15:46:05;;;;;;;5.60;2.58;;;;;;;;;;7344236;19;20340;-83
2023/09/18 15:48:31;;;;;;;7.30;2.40;;;;;;;;;;7363216;19;20504;-82
2023/09/18 15:50:56;;;;;;;6.93;2.47;;;;;;;;;;7360590;19;19994;-83
2023/09/18 15:53:21;;;;;;;5.40;2.40;;;;;;;;;;7330246;19;20579;-86
2023/09/18 15:55:46;;;;;;;7.93;2.30;;;;;;;;;;7365103;19;20957;-82
2023/09/18 15:58:12;;;;;;;5.67;2.30;;;;;;;;;;7350659;19;20090;-83
2023/09/18 16:00:37;;;;;;;6.40;2.58;;;;;;;;;;7352702;19;20476;-84
2023/09/18 16:03:02;;;;;;;5.13;2.13;;;;;;;;;;7326833;19;20006;-83
2023/09/18 16:05:27;;;;;;;5.13;2.33;;;;;;;;;;7360980;19;20048;-84
2023/09/18 16:07:59;;;;;;;6.47;2.10;;;;;;;;;;7338549;19;19999;-81
2023/09/18 16:10:24;;;;;;;9.23;3.08;;;;;;;;;;7356359;19;19998;-84
2023/09/18 16:12:50;;;;;;;7.53;2.40;;;;;;;;;;7355328;19;20009;-85
2023/09/18 16:15:15;;;;;;;6.73;2.27;;;;;;;;;;7340140;19;20012;-85
2023/09/18 16:17:40;;;;;;;6.13;2.60;;;;;;;;;;7273603;19;20307;-79
2023/09/18 16:20:06;;;;;;;7.38;2.70;;;;;;;;;;7361744;19;20003;-82
2023/09/18 16:22:32;;;;;;;6.40;2.53;;;;;;;;;;7357871;19;20011;-86
2023/09/18 16:24:59;;;;;;;7.63;2.80;;;;;;;;;;7339352;19;20315;-84
2023/09/18 16:27:24;;;;;;;9.35;2.05;;;;;;;;;;7310954;19;19994;-86
2023/09/18 16:29:49;;;;;;;7.45;2.50;;;;;;;;;;7330624;19;20525;-87
2023/09/18 16:32:15;;;;;;;8.30;2.30;;;;;;;;;;7322647;19;20031;-84
2023/09/18 16:34:41;;;;;;;8.57;2.50;;;;;;;;;;7336212;19;20052;-82
2023/09/18 16:37:07;;;;;;;5.47;2.03;;;;;;;;;;7345063;19;20009;-84
2023/09/18 16:39:32;;;;;;;6.82;2.63;;;;;;;;;;7344458;19;20066;-83
2023/09/18 16:41:57;;;;;;;5.88;2.45;;;;;;;;;;7356906;19;20002;-85
2023/09/18 16:44:22;;;;;;;7.30;2.50;;;;;;;;;;7344871;19;20416;-82
2023/09/18 16:46:47;;;;;;;5.93;2.43;;;;;;;;;;7332227;19;20243;-86
2023/09/18 16:49:15;;;;;;;10.10;2.40;;;;;;;;;;7348430;19;20258;-85
2023/09/18 16:51:41;;;;;;;8.50;2.58;;;;;;;;;;7352974;19;21081;-83
2023/09/18 16:54:07;;;;;;;7.80;2.75;;;;;;;;;;7357625;19;20055;-81
2023/09/18 16:56:33;;;;;;;6.07;2.80;;;;;;;;;;7347362;19;20013;-83
2023/09/18 16:58:59;;;;;;;7.40;2.40;;;;;;;;;;7355917;19;20013;-86
2023/09/18 17:01:24;;;;;;;6.82;2.50;;;;;;;;;;7350850;19;20415;-83
2023/09/18 17:03:49;;;;;;;12.50;2.53;;;;;;;;;;7359215;19;19994;-85
2023/09/18 17:06:15;;;;;;;6.13;2.58;;;;;;;;;;7348787;19;20718;-82
2023/09/18 17:08:40;;;;;;;6.63;2.50;;;;;;;;;;7362157;19;20032;-83
2023/09/18 17:11:06;;;;;;;7.70;2.57;;;;;;;;;;7358848;19;19998;-86
2023/09/18 17:13:31;;;;;;;6.35;2.60;;;;;;;;;;7346856;19;20090;-84
2023/09/18 17:15:56;;;;;;;8.82;2.33;;;;;;;;;;7340458;19;19995;-86
2023/09/18 17:18:21;;;;;;;8.87;2.53;;;;;;;;;;7349874;19;20531;-83
2023/09/18 17:20:49;;;;;;;8.33;2.77;;;;;;;;;;7329134;19;19991;-86
2023/09/18 17:23:15;;;;;;;9.25;3.00;;;;;;;;;;7338665;19;20228;-83
2023/09/18 17:25:40;;;;;;;8.38;2.20;;;;;;;;;;7348225;19;20507;-85
2023/09/18 17:28:05;;;;;;;8.35;2.60;;;;;;;;;;7345221;19;21400;-83
2023/09/18 17:30:31;;;;;;;9.25;3.08;;;;;;;;;;7352171;19;20002;-84
2023/09/18 17:32:56;;;;;;;5.88;2.40;;;;;;;;;;7331880;19;20448;-85
2023/09/18 17:35:22;;;;;;;7.45;2.30;;;;;;;;;;7347871;19;19998;-85
2023/09/18 17:37:47;;;;;;;11.40;2.47;;;;;;;;;;7333308;19;20420;-85
2023/09/18 17:40:15;;;;;;;7.83;2.80;;;;;;;;;;7339955;19;20431;-85
2023/09/18 17:42:40;;;;;;;8.93;2.83;;;;;;;;;;7319508;19;20251;-84
2023/09/18 17:45:06;;;;;;;6.40;2.55;;;;;;;;;;7334519;19;20010;-83
2023/09/18 17:47:31;;;;;;;7.85;2.88;;;;;;;;;;7342775;19;20003;-80
2023/09/18 17:49:56;;;;;;;7.65;2.75;;;;;;;;;;7347624;19;20128;-82
2023/09/18 17:52:22;;;;;;;6.70;2.43;;;;;;;;;;7338003;19;20031;-84
2023/09/18 17:54:47;;;;;;;7.72;2.60;;;;;;;;;;7350172;19;20010;-80
2023/09/18 17:57:12;;;;;;;8.33;2.50;;;;;;;;;;7350982;19;20414;-79
2023/09/18 17:59:38;;;;;;;7.85;2.40;;;;;;;;;;7353392;19;19994;-81
2023/09/18 18:02:04;;;;;;;6.97;1.90;;;;;;;;;;7345425;19;20367;-84
2023/09/18 18:04:30;;;;;;;7.60;1.92;;;;;;;;;;7338442;19;20027;-83
2023/09/18 18:06:55;;;;;;;6.97;1.90;;;;;;;;;;7348056;19;20078;-81
2023/09/18 18:09:20;;;;;;;4.40;1.93;;;;;;;;;;7335089;19;20185;-81
2023/09/18 18:11:45;;;;;;;5.30;1.43;;;;;;;;;;7339727;19;20295;-84
2023/09/18 18:14:11;;;;;;;4.30;1.60;;;;;;;;;;7341920;19;20258;-83
2023/09/18 18:16:36;;;;;;;6.35;1.70;;;;;;;;;;7344627;19;20594;-82
2023/09/18 18:19:04;;;;;;;6.55;1.77;;;;;;;;;;7339222;19;20003;-85
2023/09/18 18:21:29;;;;;;;6.50;2.03;;;;;;;;;;7342797;19;20013;-82
2023/09/18 18:23:54;;;;;;;5.20;1.95;;;;;;;;;;7345213;19;20479;-82
2023/09/18 18:26:23;;;;;;;6.00;1.83;;;;;;;;;;7322969;19;20074;-84
2023/09/18 18:28:48;;;;;;;5.97;1.77;;;;;;;;;;7312119;19;20039;-83
2023/09/18 18:31:13;;;;;;;5.15;1.95;;;;;;;;;;7315971;19;19995;-84
2023/09/18 18:33:40;;;;;;;5.25;1.83;;;;;;;;;;7328151;19;20375;-83
2023/09/18 18:36:05;;;;;;;8.05;2.05;;;;;;;;;;7331160;19;19998;-83
2023/09/18 18:38:31;;;;;;;5.40;1.83;;;;;;;;;;7351024;19;20321;-82
2023/09/18 18:40:56;;;;;;;4.67;1.80;;;;;;;;;;7344338;19;20023;-84
2023/09/18 18:43:22;;;;;;;6.38;2.20;;;;;;;;;;7344484;19;20010;-81
2023/09/18 18:45:50;;;;;;;5.33;2.07;;;;;;;;;;7334520;19;20012;-84
2023/09/18 18:48:15;;;;;;;7.72;2.30;;;;;;;;;;7341495;19;20239;-84
2023/09/18 18:50:40;;;;;;;6.63;2.10;;;;;;;;;;7351512;19;20447;-84
2023/09/18 18:53:07;;;;;;;6.30;2.33;;;;;;;;;;7350745;19;20168;-82
2023/09/18 18:55:32;;;;;;;8.52;2.25;;;;;;;;;;7348255;19;20303;-80
2023/09/18 18:57:58;;;;;;;6.75;2.28;;;;;;;;;;7251464;19;20031;-82
2023/09/18 19:00:23;;;;;;;5.53;1.90;;;;;;;;;;7329728;19;20878;-85
2023/09/18 19:02:48;;;;;;;9.57;2.30;;;;;;;;;;7323273;19;20271;-84
2023/09/18 19:05:13;;;;;;;5.90;2.20;;;;;;;;;;7326182;19;20244;-81
2023/09/18 19:07:38;;;;;;;6.53;2.42;;;;;;;;;;7344627;19;20716;-81
2023/09/18 19:10:04;;;;;;;6.20;2.50;;;;;;;;;;7339966;19;20101;-83
2023/09/18 19:12:30;;;;;;;7.13;2.75;;;;;;;;;;7346213;19;20764;-84
2023/09/18 19:14:57;;;;;;;7.03;2.60;;;;;;;;;;7342729;19;20058;-86
2023/09/18 19:17:23;;;;;;;7.88;2.50;;;;;;;;;;7325368;19;20027;-83
2023/09/18 19:19:48;;;;;;;4.80;2.20;;;;;;;;;;7341539;19;20006;-84
2023/09/18 19:22:13;;;;;;;7.60;2.47;;;;;;;;;;7338387;19;20029;-86
2023/09/18 19:24:38;;;;;;;6.73;2.50;;;;;;;;;;7340129;19;19995;-83
2023/09/18 19:27:03;;;;;;;6.40;2.38;;;;;;;;;;7341038;19;20277;-84
2023/09/18 19:29:31;;;;;;;6.28;2.38;;;;;;;;;;7324709;19;20287;-85
2023/09/18 19:31:56;;;;;;;6.15;2.70;;;;;;;;;;7333942;19;20003;-84
2023/09/18 19:34:21;;;;;;;9.05;2.80;;;;;;;;;;7321464;19;20009;-84
2023/09/18 19:36:50;;;;;;;8.90;2.40;;;;;;;;;;7262044;19;20020;-82
2023/09/18 19:39:16;;;;;;;7.97;2.63;;;;;;;;;;7333795;19;20932;-81
2023/09/18 19:41:41;;;;;;;5.80;2.63;;;;;;;;;;7326524;19;20011;-83
2023/09/18 19:44:08;;;;;;;9.02;2.95;;;;;;;;;;7337916;19;20037;-82
2023/09/18 19:46:35;;;;;;;7.38;3.28;;;;;;;;;;7327754;19;20554;-84
2023/09/18 19:49:00;;;;;;;7.63;2.90;;;;;;;;;;7332116;19;20012;-84
2023/09/18 19:51:25;;;;;;;7.07;2.88;;;;;;;;;;7332387;19;20674;-80
2023/09/18 19:53:52;;;;;;;6.43;2.77;;;;;;;;;;7336145;19;19990;-80
2023/09/18 19:56:17;;;;;;;8.07;2.97;;;;;;;;;;7341766;19;20015;-82
2023/09/18 19:58:44;;;;;;;6.87;3.07;;;;;;;;;;7338281;19;20038;-86
2023/09/18 20:01:09;;;;;;;9.88;3.15;;;;;;;;;;7332413;19;20611;-85
2023/09/18 20:03:34;;;;;;;5.70;2.75;;;;;;;;;;7338359;19;20468;-84
2023/09/18 20:06:00;;;;;;;5.95;2.97;;;;;;;;;;7331397;19;20467;-86